Gibson, Australia
Current Conditions -  °F | °C
As of 9:00 PM on Friday 28 Nov 2014 (Local Time) from YESP Reporting Station
Overcast Overcast  
Wind Chill: 63°   Ceiling: 9500
Heat Index: 63°   Visibility: 6mi
Dew Point: 61°   Wind: 6mph
Humidity: 94%   Direction: 220°SW
Pressure: 29.83"   Gusts: NA
Location:  33.64°S, 121.81°E
Report Text: YESP 281300Z AUTO 22005KT 9999 // BKN095 OVC120 17/16 Q1010
Loading
Personal Weather Stations






























Interactive Weather Map New forecast layout! Learn more

10-Day Weather Forecast

Advertisements
Track Severe Weather on mobile